createdAt,value
2018-06-03T00:00:04.376Z,21.92
2018-06-03T00:02:31.884Z,22.00
2018-06-03T00:04:59.383Z,22.01
2018-06-03T00:07:27.499Z,22.06
2018-06-03T00:09:54.970Z,22.14
2018-06-03T00:12:22.447Z,22.08
2018-06-03T00:14:49.901Z,22.13
2018-06-03T00:17:17.392Z,22.18
2018-06-03T00:19:44.974Z,22.19
2018-06-03T00:22:22.031Z,22.09
2018-06-03T00:24:49.524Z,21.97
2018-06-03T00:27:16.987Z,21.91
2018-06-03T00:29:44.469Z,21.84
2018-06-03T00:32:11.966Z,21.73
2018-06-03T00:34:39.414Z,21.71
2018-06-03T00:37:06.911Z,21.68
2018-06-03T00:39:34.374Z,21.63
2018-06-03T00:42:01.832Z,21.61
2018-06-03T00:44:29.323Z,21.62
2018-06-03T00:46:56.807Z,21.70
2018-06-03T00:49:24.273Z,21.68
2018-06-03T00:51:51.732Z,21.66
2018-06-03T00:54:19.231Z,21.67
2018-06-03T00:56:58.421Z,21.67
2018-06-03T00:59:25.894Z,21.80
2018-06-03T01:01:53.422Z,21.76
2018-06-03T01:04:20.978Z,21.62
2018-06-03T01:06:48.450Z,21.60
2018-06-03T01:09:15.918Z,21.60
2018-06-03T01:11:43.400Z,21.52
2018-06-03T01:14:10.888Z,21.47
2018-06-03T01:16:38.727Z,21.60
2018-06-03T01:19:06.183Z,21.60
2018-06-03T01:21:33.678Z,21.52
2018-06-03T01:24:01.176Z,21.45
2018-06-03T01:26:28.640Z,21.64
2018-06-03T01:28:56.120Z,21.71
2018-06-03T01:31:23.583Z,21.75
2018-06-03T01:33:51.111Z,21.76
2018-06-03T01:36:18.573Z,21.78
2018-06-03T01:38:46.123Z,21.72
2018-06-03T01:41:13.591Z,21.60
2018-06-03T01:43:41.055Z,21.51
2018-06-03T01:46:08.573Z,21.46
2018-06-03T01:48:36.028Z,21.54
2018-06-03T01:51:03.555Z,21.50
2018-06-03T01:53:31.032Z,21.54
2018-06-03T01:55:58.504Z,21.46
2018-06-03T01:58:25.964Z,21.42
2018-06-03T02:00:53.432Z,21.41
2018-06-03T02:05:54.729Z,21.34
2018-06-03T02:08:22.187Z,21.38
2018-06-03T02:10:49.660Z,21.44
2018-06-03T02:13:17.148Z,21.35
2018-06-03T02:15:44.656Z,21.29
2018-06-03T02:18:12.137Z,21.19
2018-06-03T02:20:39.603Z,21.21
2018-06-03T02:23:07.070Z,21.13
2018-06-03T02:25:34.551Z,21.19
2018-06-03T02:28:02.028Z,21.22
2018-06-03T02:30:29.519Z,21.19
2018-06-03T02:32:56.995Z,21.01
2018-06-03T02:35:24.467Z,20.98
2018-06-03T02:37:51.938Z,20.92
2018-06-03T02:40:19.438Z,20.89
2018-06-03T02:42:46.936Z,20.85
2018-06-03T02:45:14.414Z,20.88
2018-06-03T02:47:41.923Z,20.94
2018-06-03T02:50:09.413Z,20.83
2018-06-03T02:52:36.871Z,20.88
2018-06-03T02:55:04.347Z,20.74
2018-06-03T02:57:31.854Z,20.70
2018-06-03T02:59:59.331Z,20.65
2018-06-03T03:02:26.785Z,20.68
2018-06-03T03:04:54.251Z,20.72
2018-06-03T03:07:21.748Z,20.70
2018-06-03T03:09:49.933Z,20.75
2018-06-03T03:12:17.387Z,20.71
2018-06-03T03:14:44.907Z,20.71
2018-06-03T03:17:12.384Z,20.66
2018-06-03T03:19:39.884Z,20.71
2018-06-03T03:22:07.352Z,20.78
2018-06-03T03:24:34.863Z,20.70
2018-06-03T03:27:02.286Z,20.80
2018-06-03T03:29:29.735Z,20.80
2018-06-03T03:31:57.218Z,20.82
2018-06-03T03:34:24.678Z,20.86
2018-06-03T03:36:52.143Z,20.84
2018-06-03T03:39:19.638Z,21.06
2018-06-03T03:41:47.095Z,21.06
2018-06-03T03:44:15.626Z,20.96
2018-06-03T03:46:43.180Z,21.13
2018-06-03T03:49:10.681Z,21.20
2018-06-03T03:51:38.156Z,21.00
2018-06-03T03:54:05.680Z,21.10
2018-06-03T03:56:33.139Z,21.08
2018-06-03T03:59:00.643Z,21.15
2018-06-03T04:01:28.120Z,21.21
2018-06-03T04:03:55.590Z,21.26
2018-06-03T04:06:23.044Z,21.26
2018-06-03T04:08:50.635Z,21.30
2018-06-03T04:11:18.083Z,21.36
2018-06-03T04:13:45.716Z,21.26
2018-06-03T04:16:13.217Z,21.27
2018-06-03T04:19:14.391Z,21.11
2018-06-03T04:21:43.064Z,21.24
2018-06-03T04:24:11.730Z,21.21
2018-06-03T04:26:41.323Z,21.18
2018-06-03T04:29:10.061Z,21.35
2018-06-03T04:31:39.704Z,21.43
2018-06-03T04:34:08.496Z,21.51
2018-06-03T04:36:37.127Z,21.50
2018-06-03T04:39:07.257Z,21.47
2018-06-03T04:41:35.915Z,21.44
2018-06-03T04:44:04.865Z,21.47
2018-06-03T04:46:33.512Z,21.65
2018-06-03T04:49:02.163Z,21.64
2018-06-03T04:51:30.875Z,21.58
2018-06-03T04:53:59.527Z,21.76
2018-06-03T04:56:28.348Z,21.79
2018-06-03T04:58:57.150Z,21.79
2018-06-03T05:01:25.843Z,21.87
2018-06-03T05:03:54.504Z,21.65
2018-06-03T05:06:23.188Z,21.73
2018-06-03T05:08:52.339Z,21.87
2018-06-03T05:11:20.950Z,21.97
2018-06-03T05:13:50.155Z,22.01
2018-06-03T05:16:18.807Z,22.00
2018-06-03T05:18:47.545Z,22.06
2018-06-03T05:21:16.283Z,22.08
2018-06-03T05:23:44.998Z,22.15
2018-06-03T05:26:13.758Z,22.10
2018-06-03T05:28:42.440Z,22.10
2018-06-03T05:31:11.182Z,22.17
2018-06-03T05:33:39.789Z,22.11
2018-06-03T05:36:08.487Z,22.04
2018-06-03T05:38:37.134Z,22.21
2018-06-03T05:41:05.976Z,22.22
2018-06-03T05:43:34.688Z,22.29
2018-06-03T05:46:03.326Z,22.37
2018-06-03T05:48:31.985Z,22.39
2018-06-03T05:51:00.623Z,22.59
2018-06-03T05:53:29.363Z,22.76
2018-06-03T05:55:57.971Z,22.88
2018-06-03T05:58:26.578Z,22.84
2018-06-03T06:00:55.258Z,22.83
2018-06-03T06:03:25.383Z,22.85
2018-06-03T06:05:54.017Z,22.69
2018-06-03T06:08:22.682Z,22.66
2018-06-03T06:10:51.278Z,22.89
2018-06-03T06:13:19.973Z,22.91
2018-06-03T06:15:49.092Z,23.15
2018-06-03T06:18:17.774Z,23.24
2018-06-03T06:20:46.434Z,23.25
2018-06-03T06:23:15.118Z,23.13
2018-06-03T06:25:43.707Z,23.29
2018-06-03T06:28:12.394Z,23.29
2018-06-03T06:30:41.064Z,23.22
2018-06-03T06:33:09.665Z,23.29
2018-06-03T06:35:38.369Z,23.40
2018-06-03T06:38:06.993Z,23.53
2018-06-03T06:40:35.713Z,23.67
2018-06-03T06:43:04.443Z,23.68
2018-06-03T06:45:33.102Z,23.68
2018-06-03T06:48:01.732Z,23.96
2018-06-03T06:50:30.379Z,24.10
2018-06-03T06:52:59.157Z,24.11
2018-06-03T06:55:27.790Z,24.05
2018-06-03T06:57:56.692Z,24.31
2018-06-03T07:00:25.759Z,23.91
2018-06-03T07:02:54.420Z,24.02
2018-06-03T07:05:23.132Z,23.98
2018-06-03T07:07:51.790Z,24.01
2018-06-03T07:10:20.435Z,24.13
2018-06-03T07:12:49.087Z,24.30
2018-06-03T07:15:17.699Z,24.32
2018-06-03T07:17:46.365Z,24.13
2018-06-03T07:20:14.967Z,24.32
2018-06-03T07:22:44.085Z,24.45
2018-06-03T07:25:13.274Z,24.48
2018-06-03T07:27:41.933Z,24.62
2018-06-03T07:30:11.312Z,24.64
2018-06-03T07:32:40.020Z,24.46
2018-06-03T07:35:09.202Z,24.53
2018-06-03T07:37:37.871Z,24.50
2018-06-03T07:40:06.582Z,24.72
2018-06-03T07:42:35.255Z,24.40
2018-06-03T07:45:03.996Z,24.49
2018-06-03T07:47:32.769Z,24.72
2018-06-03T07:50:01.439Z,24.79
2018-06-03T07:52:30.139Z,24.64
2018-06-03T07:54:58.848Z,24.79
2018-06-03T07:57:27.526Z,24.82
2018-06-03T07:59:56.234Z,25.04
2018-06-03T08:02:28.071Z,24.96
2018-06-03T08:04:56.780Z,25.04
2018-06-03T08:07:26.216Z,25.27
2018-06-03T08:09:54.896Z,25.28
2018-06-03T08:12:23.938Z,25.26
2018-06-03T08:14:52.652Z,25.52
2018-06-03T08:17:21.351Z,25.41
2018-06-03T08:19:49.976Z,25.59
2018-06-03T08:22:18.642Z,25.31
2018-06-03T08:24:47.386Z,25.51
2018-06-03T08:29:49.571Z,25.61
2018-06-03T08:32:18.240Z,25.53
2018-06-03T08:34:47.771Z,25.68
2018-06-03T08:37:16.609Z,25.83
2018-06-03T08:39:47.663Z,25.90
2018-06-03T08:42:16.372Z,26.47
2018-06-03T08:44:45.459Z,26.56
2018-06-03T08:47:14.146Z,26.11
2018-06-03T08:49:42.881Z,26.51
2018-06-03T08:52:11.618Z,26.35
2018-06-03T08:54:40.260Z,26.54
2018-06-03T08:57:09.908Z,26.52
2018-06-03T08:59:38.699Z,26.58
2018-06-03T09:02:07.462Z,26.45
2018-06-03T09:04:36.205Z,26.30
2018-06-03T09:07:05.552Z,26.08
2018-06-03T09:09:34.700Z,26.24
2018-06-03T09:12:03.434Z,26.51
2018-06-03T09:14:32.426Z,26.40
2018-06-03T09:17:01.134Z,26.34
2018-06-03T09:19:30.062Z,25.89
2018-06-03T09:21:58.814Z,25.90
2018-06-03T09:24:27.455Z,26.15
2018-06-03T09:26:56.147Z,26.35
2018-06-03T09:29:24.915Z,26.15
2018-06-03T09:31:53.515Z,26.04
2018-06-03T09:34:22.267Z,26.32
2018-06-03T09:36:50.972Z,26.58
2018-06-03T09:39:19.613Z,26.80
2018-06-03T09:41:49.180Z,26.77
2018-06-03T09:44:17.841Z,26.58
2018-06-03T09:46:46.483Z,26.95
2018-06-03T09:49:15.262Z,26.82
2018-06-03T09:51:43.902Z,26.80
2018-06-03T09:54:12.950Z,26.73
2018-06-03T09:56:41.742Z,26.57
2018-06-03T09:59:10.437Z,26.84
2018-06-03T10:01:39.225Z,26.71
2018-06-03T10:04:08.015Z,27.00
2018-06-03T10:06:36.785Z,27.43
2018-06-03T10:09:07.328Z,27.39
2018-06-03T10:11:36.722Z,27.08
2018-06-03T10:14:05.506Z,26.99
2018-06-03T10:16:34.207Z,27.24
2018-06-03T10:19:02.954Z,27.07
2018-06-03T10:21:31.704Z,27.24
2018-06-03T10:24:00.383Z,26.69
2018-06-03T10:26:29.867Z,26.79
2018-06-03T10:28:59.434Z,27.05
2018-06-03T10:31:28.707Z,26.84
2018-06-03T10:33:57.392Z,27.15
2018-06-03T10:36:26.483Z,27.41
2018-06-03T10:38:55.153Z,27.58
2018-06-03T10:41:23.877Z,27.41
2018-06-03T10:43:52.893Z,27.06
2018-06-03T10:46:22.347Z,26.83
2018-06-03T10:48:51.097Z,26.68
2018-06-03T10:51:19.715Z,26.97
2018-06-03T10:53:48.459Z,27.50
2018-06-03T10:56:17.212Z,27.50
2018-06-03T10:58:45.919Z,27.62
2018-06-03T11:01:14.563Z,27.98
2018-06-03T11:03:43.223Z,28.28
2018-06-03T11:06:11.918Z,28.04
2018-06-03T11:08:40.909Z,28.44
2018-06-03T11:11:09.689Z,28.75
2018-06-03T11:13:38.354Z,28.43
2018-06-03T11:16:07.091Z,28.44
2018-06-03T11:18:35.774Z,28.67
2018-06-03T11:21:04.447Z,28.13
2018-06-03T11:23:33.061Z,27.86
2018-06-03T11:26:01.718Z,28.55
2018-06-03T11:28:30.322Z,28.67
2018-06-03T11:30:59.000Z,28.66
2018-06-03T11:33:27.658Z,28.91
2018-06-03T11:35:56.801Z,29.28
2018-06-03T11:38:25.549Z,29.85
2018-06-03T11:40:57.798Z,29.44
2018-06-03T11:43:26.538Z,29.22
2018-06-03T11:45:55.232Z,29.52
2018-06-03T11:48:23.973Z,29.67
2018-06-03T11:50:52.860Z,30.05
2018-06-03T11:53:21.503Z,30.13
2018-06-03T11:55:50.136Z,30.25
2018-06-03T11:59:28.205Z,30.23
2018-06-03T12:01:56.911Z,29.71
2018-06-03T12:04:25.602Z,30.08
2018-06-03T12:06:54.277Z,29.88
2018-06-03T12:09:22.938Z,30.03
2018-06-03T12:11:51.550Z,30.31
2018-06-03T12:14:20.198Z,31.10
2018-06-03T12:16:48.842Z,30.93
2018-06-03T12:19:17.501Z,30.81
2018-06-03T12:21:46.192Z,31.08
2018-06-03T12:24:14.866Z,31.31
2018-06-03T12:26:43.687Z,31.13
2018-06-03T12:29:12.378Z,31.33
2018-06-03T12:31:41.102Z,31.62
2018-06-03T12:34:09.726Z,31.06
2018-06-03T12:36:38.454Z,30.97
2018-06-03T12:39:11.240Z,31.11
2018-06-03T12:41:39.986Z,31.37
2018-06-03T12:44:08.865Z,30.88
2018-06-03T12:46:37.558Z,30.74
2018-06-03T12:49:06.291Z,30.48
2018-06-03T12:51:34.990Z,30.50
2018-06-03T12:54:03.775Z,30.67
2018-06-03T12:56:32.678Z,30.05
2018-06-03T12:59:01.401Z,30.33
2018-06-03T13:01:30.073Z,30.40
2018-06-03T13:03:58.772Z,30.68
2018-06-03T13:06:27.484Z,30.24
2018-06-03T13:08:56.086Z,30.19
2018-06-03T13:11:24.723Z,30.19
2018-06-03T13:13:53.387Z,30.06
2018-06-03T13:16:22.038Z,30.54
2018-06-03T13:18:50.758Z,30.70
2018-06-03T13:21:19.410Z,29.83
2018-06-03T13:23:48.158Z,29.62
2018-06-03T13:26:16.898Z,30.32
2018-06-03T13:28:45.622Z,30.49
2018-06-03T13:31:14.215Z,30.76
2018-06-03T13:33:42.884Z,30.96
2018-06-03T13:36:11.570Z,30.81
2018-06-03T13:38:40.229Z,30.39
2018-06-03T13:41:08.872Z,29.83
2018-06-03T13:43:37.500Z,29.47
2018-06-03T13:46:06.405Z,30.04
2018-06-03T13:48:35.036Z,29.60
2018-06-03T13:51:03.742Z,29.10
2018-06-03T13:53:32.502Z,28.62
2018-06-03T13:56:01.121Z,28.39
2018-06-03T13:58:30.030Z,28.94
2018-06-03T14:00:59.076Z,29.26
2018-06-03T14:03:27.813Z,29.79
2018-06-03T14:05:56.455Z,30.36
2018-06-03T14:08:25.839Z,31.50
2018-06-03T14:10:54.557Z,32.15
2018-06-03T14:13:27.714Z,33.11
2018-06-03T14:15:56.366Z,34.08
2018-06-03T14:18:24.996Z,34.82
2018-06-03T14:20:53.613Z,34.12
2018-06-03T14:23:22.946Z,34.65
2018-06-03T14:25:51.708Z,35.43
2018-06-03T14:28:20.394Z,34.57
2018-06-03T14:30:49.168Z,34.36
2018-06-03T14:33:17.854Z,34.67
2018-06-03T14:35:46.579Z,34.78
2018-06-03T14:38:15.432Z,34.47
2018-06-03T14:40:44.147Z,35.41
2018-06-03T14:43:12.794Z,37.18
2018-06-03T14:45:41.718Z,38.34
2018-06-03T14:48:10.327Z,38.45
2018-06-03T14:50:39.026Z,36.59
2018-06-03T14:53:07.596Z,37.83
2018-06-03T14:55:36.278Z,38.12
2018-06-03T14:58:05.288Z,38.22
2018-06-03T15:00:33.922Z,37.52
2018-06-03T15:03:03.239Z,37.91
2018-06-03T15:05:31.939Z,36.86
2018-06-03T15:08:00.643Z,36.46
2018-06-03T15:10:29.854Z,35.39
2018-06-03T15:12:58.551Z,34.07
2018-06-03T15:15:27.193Z,34.18
2018-06-03T15:17:55.817Z,33.87
2018-06-03T15:20:24.554Z,33.75
2018-06-03T15:22:53.206Z,33.85
2018-06-03T15:25:22.454Z,33.93
2018-06-03T15:27:56.268Z,34.87
2018-06-03T15:30:25.243Z,36.65
2018-06-03T15:32:54.321Z,35.57
2018-06-03T15:35:22.947Z,34.42
2018-06-03T15:37:51.594Z,33.95
2018-06-03T15:40:20.251Z,33.82
2018-06-03T15:42:55.439Z,34.53
2018-06-03T15:45:24.189Z,36.76
2018-06-03T15:47:52.856Z,36.63
2018-06-03T15:50:21.591Z,36.90
2018-06-03T15:52:50.278Z,37.86
2018-06-03T15:55:18.942Z,38.57
2018-06-03T15:57:47.659Z,38.32
2018-06-03T16:00:16.408Z,36.92
2018-06-03T16:02:45.035Z,37.40
2018-06-03T16:05:13.713Z,37.84
2018-06-03T16:07:43.169Z,36.10
2018-06-03T16:10:11.920Z,34.80
2018-06-03T16:12:40.635Z,36.18
2018-06-03T16:15:09.297Z,37.64
2018-06-03T16:17:37.934Z,37.71
2018-06-03T16:20:06.643Z,35.55
2018-06-03T16:22:35.258Z,35.17
2018-06-03T16:25:03.941Z,33.96
2018-06-03T16:27:32.971Z,34.93
2018-06-03T16:30:01.617Z,35.29
2018-06-03T16:32:30.238Z,35.89
2018-06-03T16:34:58.999Z,37.81
2018-06-03T16:37:28.079Z,37.49
2018-06-03T16:39:57.545Z,35.64
2018-06-03T16:42:27.072Z,36.79
2018-06-03T16:44:55.855Z,38.45
2018-06-03T16:47:24.735Z,38.67
2018-06-03T16:49:54.359Z,38.58
2018-06-03T16:52:23.063Z,39.18
2018-06-03T16:54:53.546Z,38.82
2018-06-03T16:57:22.466Z,38.98
2018-06-03T16:59:51.376Z,39.73
2018-06-03T17:02:20.827Z,40.15
2018-06-03T17:04:49.743Z,40.04
2018-06-03T17:07:23.003Z,40.74
2018-06-03T17:09:52.082Z,39.66
2018-06-03T17:12:21.196Z,39.31
2018-06-03T17:14:49.951Z,39.19
2018-06-03T17:17:19.194Z,38.75
2018-06-03T17:19:53.390Z,38.78
2018-06-03T17:22:22.263Z,38.43
2018-06-03T17:24:51.112Z,37.84
2018-06-03T17:27:20.074Z,38.18
2018-06-03T17:29:48.702Z,38.09
2018-06-03T17:32:17.359Z,38.14
2018-06-03T17:34:45.989Z,37.56
2018-06-03T17:37:14.693Z,36.80
2018-06-03T17:39:44.142Z,36.89
2018-06-03T17:42:12.950Z,36.02
2018-06-03T17:44:41.662Z,35.42
2018-06-03T17:47:10.440Z,34.97
2018-06-03T17:49:39.246Z,34.16
2018-06-03T17:52:08.433Z,33.22
2018-06-03T17:54:37.137Z,32.42
2018-06-03T17:57:05.879Z,31.47
2018-06-03T17:59:34.626Z,30.82
2018-06-03T18:02:06.359Z,30.08
2018-06-03T18:04:36.547Z,29.29
2018-06-03T18:07:05.216Z,28.84
2018-06-03T18:09:34.696Z,28.56
2018-06-03T18:12:06.375Z,28.00
2018-06-03T18:14:38.616Z,27.80
2018-06-03T18:17:07.289Z,27.65
2018-06-03T18:19:35.984Z,27.46
2018-06-03T18:22:05.751Z,27.14
2018-06-03T18:24:36.163Z,26.84
2018-06-03T18:27:06.201Z,26.56
2018-06-03T18:29:35.396Z,26.49
2018-06-03T18:32:04.105Z,26.31
2018-06-03T18:34:32.931Z,26.11
2018-06-03T18:37:02.903Z,25.84
2018-06-03T18:39:31.713Z,25.72
2018-06-03T18:42:00.575Z,25.56
2018-06-03T18:44:29.283Z,25.36
2018-06-03T18:46:58.014Z,25.17
2018-06-03T18:49:26.983Z,24.99
2018-06-03T18:51:55.623Z,24.84
2018-06-03T18:54:24.280Z,24.72
2018-06-03T18:56:52.957Z,24.62
2018-06-03T18:59:21.625Z,24.46
2018-06-03T19:01:50.702Z,24.39
2018-06-03T19:04:19.621Z,24.23
2018-06-03T19:06:48.297Z,24.17
2018-06-03T19:09:17.529Z,24.12
2018-06-03T19:11:46.132Z,24.01
2018-06-03T19:27:09.867Z,23.37
2018-06-03T19:29:38.520Z,23.26
2018-06-03T19:32:07.201Z,23.21
2018-06-03T19:34:35.878Z,23.14
2018-06-03T19:37:04.488Z,22.99
2018-06-03T19:39:33.131Z,22.89
2018-06-03T19:42:01.823Z,22.86
2018-06-03T19:44:30.438Z,22.76
2018-06-03T19:46:59.176Z,22.69
2018-06-03T19:49:28.176Z,22.64
2018-06-03T19:51:56.884Z,22.60
2018-06-03T19:54:25.516Z,22.70
2018-06-03T19:56:54.173Z,22.72
2018-06-03T19:59:22.866Z,22.65
2018-06-03T20:01:51.614Z,22.50
2018-06-03T20:04:20.295Z,22.33
2018-06-03T20:06:48.975Z,22.28
2018-06-03T20:09:17.604Z,22.19
2018-06-03T20:11:46.238Z,22.13
2018-06-03T20:14:15.769Z,22.10
2018-06-03T20:16:44.415Z,22.01
2018-06-03T20:19:13.171Z,21.90
2018-06-03T20:21:42.003Z,21.83
2018-06-03T20:24:10.675Z,21.76
2018-06-03T20:26:39.294Z,21.69
2018-06-03T20:29:08.146Z,21.65
2018-06-03T20:31:37.078Z,21.64
2018-06-03T20:34:05.766Z,21.62
2018-06-03T20:36:34.416Z,21.71
2018-06-03T20:39:10.296Z,21.67
2018-06-03T20:41:38.955Z,21.73
2018-06-03T20:44:08.813Z,21.68
2018-06-03T20:46:37.592Z,21.62
2018-06-03T20:49:06.332Z,21.62
2018-06-03T20:51:34.971Z,21.57
2018-06-03T20:54:03.647Z,21.64
2018-06-03T20:56:32.516Z,21.73
2018-06-03T20:59:01.184Z,21.86
2018-06-03T21:01:29.790Z,21.76
2018-06-03T21:03:58.519Z,21.72
2018-06-03T21:06:27.175Z,21.67
2018-06-03T21:08:55.821Z,21.63
2018-06-03T21:11:24.531Z,21.78
2018-06-03T21:13:53.155Z,21.70
2018-06-03T21:16:21.821Z,21.60
2018-06-03T21:18:50.434Z,21.63
2018-06-03T21:21:19.101Z,21.65
2018-06-03T21:23:47.759Z,21.59
2018-06-03T21:26:16.599Z,21.59
2018-06-03T21:28:45.303Z,21.65
2018-06-03T21:31:13.895Z,21.59
2018-06-03T21:33:42.600Z,21.63
2018-06-03T21:36:11.353Z,21.57
2018-06-03T21:38:40.716Z,21.55
2018-06-03T21:41:09.531Z,21.51
2018-06-03T21:43:38.336Z,21.44
2018-06-03T21:46:07.070Z,21.33
2018-06-03T21:48:35.795Z,21.41
2018-06-03T21:51:04.568Z,21.36
2018-06-03T21:53:33.289Z,21.30
2018-06-03T21:56:02.033Z,21.32
2018-06-03T21:58:30.836Z,21.33
2018-06-03T22:00:59.504Z,21.26
2018-06-03T22:03:28.632Z,21.22
2018-06-03T22:05:57.360Z,21.22
2018-06-03T22:08:26.107Z,21.19
2018-06-03T22:10:55.032Z,21.21
2018-06-03T22:13:23.736Z,21.12
2018-06-03T22:15:52.488Z,21.05
2018-06-03T22:18:21.214Z,21.08
2018-06-03T22:20:49.957Z,21.10
2018-06-03T22:23:18.644Z,21.06
2018-06-03T22:25:53.854Z,21.00
2018-06-03T22:28:22.758Z,20.98
2018-06-03T22:30:51.504Z,20.91
2018-06-03T22:33:20.316Z,20.92
2018-06-03T22:35:49.106Z,20.88
2018-06-03T22:38:17.855Z,20.87
2018-06-03T22:40:46.619Z,20.79
2018-06-03T22:43:15.333Z,20.75
2018-06-03T22:45:44.180Z,20.74
2018-06-03T22:48:12.936Z,20.69
2018-06-03T22:50:41.701Z,20.63
2018-06-03T22:53:10.471Z,20.61
2018-06-03T22:55:39.181Z,20.57
2018-06-03T22:58:07.810Z,20.51
2018-06-03T23:00:36.602Z,20.47
2018-06-03T23:03:10.441Z,20.41
2018-06-03T23:05:39.139Z,20.36
2018-06-03T23:08:07.861Z,20.33
2018-06-03T23:10:36.609Z,20.28
2018-06-03T23:13:05.246Z,20.25
2018-06-03T23:15:33.912Z,20.21
2018-06-03T23:18:02.624Z,20.19
2018-06-03T23:20:31.259Z,20.16
2018-06-03T23:22:59.887Z,20.12
2018-06-03T23:25:28.601Z,20.06
2018-06-03T23:27:57.344Z,20.02
2018-06-03T23:30:25.938Z,19.94
2018-06-03T23:32:54.574Z,19.87
2018-06-03T23:35:23.245Z,19.77
2018-06-03T23:37:51.915Z,19.71
2018-06-03T23:40:20.628Z,19.66
2018-06-03T23:42:49.292Z,19.69
2018-06-03T23:45:18.024Z,19.66
2018-06-03T23:47:46.686Z,19.66
2018-06-03T23:50:15.450Z,19.62
2018-06-03T23:52:44.095Z,19.58
2018-06-03T23:55:12.810Z,19.53
2018-06-03T23:57:41.523Z,19.52
